Time;durP1;ratioP1;P1;durP2;ratioP2;P2;SDS_P1;SDS_P2;PMS_P1;PMS_P2;Temp;Humidity;BMP_temperature;BMP_pressure;BME280_temperature;BME280_humidity;BME280_pressure;Samples;Min_cycle;Max_cycle;Signal;HPM_P1;HPM_P2
2023/06/01 00:03:59;;;;;;;0.93;0.90;;;23.10;99.30;;;;;;1924222;74;27477;-57
2023/06/01 00:06:48;;;;;;;0.83;0.83;;;23.10;99.40;;;;;;1889220;75;25694;-59
2023/06/01 00:09:37;;;;;;;0.90;0.90;;;23.10;99.30;;;;;;1898419;75;25237;-56
2023/06/01 00:12:26;;;;;;;0.70;0.70;;;23.00;99.30;;;;;;1876911;75;25203;-59
2023/06/01 00:15:15;;;;;;;0.80;0.80;;;23.00;99.30;;;;;;1897156;74;25274;-57
2023/06/01 00:18:05;;;;;;;0.70;0.70;;;23.00;99.30;;;;;;1887875;75;25296;-59
2023/06/01 00:20:53;;;;;;;3.73;0.80;;;23.00;99.30;;;;;;1895293;74;25768;-60
2023/06/01 00:23:42;;;;;;;0.70;0.70;;;23.00;99.20;;;;;;1886084;75;25318;-59
2023/06/01 00:26:32;;;;;;;0.90;0.90;;;23.00;99.20;;;;;;1887394;75;27755;-60
2023/06/01 00:29:20;;;;;;;0.80;0.80;;;23.00;99.30;;;;;;1904456;74;25164;-59
2023/06/01 00:34:47;;;;;;;0.80;0.80;;;23.00;99.20;;;;;;1906171;74;27468;-57
2023/06/01 00:40:14;;;;;;;0.70;0.70;;;23.00;99.30;;;;;;1913509;74;29353;-58
2023/06/01 00:43:04;;;;;;;0.70;0.70;;;23.00;99.30;;;;;;1895500;75;26448;-59
2023/06/01 00:45:53;;;;;;;0.70;0.70;;;22.90;99.30;;;;;;1906725;74;25279;-60
2023/06/01 00:51:21;;;;;;;0.70;0.70;;;23.00;99.20;;;;;;1896369;74;28194;-57
2023/06/01 00:54:11;;;;;;;0.70;0.70;;;23.00;99.20;;;;;;1865068;76;26364;-57
2023/06/01 00:57:00;;;;;;;0.77;0.77;;;22.90;99.10;;;;;;1871460;76;25148;-60
2023/06/01 00:59:49;;;;;;;0.70;0.70;;;22.90;99.10;;;;;;1880275;76;25163;-59
2023/06/01 01:02:39;;;;;;;0.80;0.80;;;22.90;99.20;;;;;;1867437;76;25214;-60
2023/06/01 01:05:28;;;;;;;0.73;0.73;;;22.90;99.10;;;;;;1878413;76;25730;-59
2023/06/01 01:08:19;;;;;;;2.10;0.80;;;22.90;99.10;;;;;;1868939;76;25203;-57
2023/06/01 01:11:10;;;;;;;0.57;0.57;;;22.90;99.10;;;;;;1875034;76;25231;-60
2023/06/01 01:16:45;;;;;;;1.40;0.73;;;22.90;99.10;;;;;;1929529;72;28374;-56
2023/06/01 01:22:16;;;;;;;1.63;0.70;;;22.90;99.10;;;;;;1932390;72;29302;-57
2023/06/01 01:25:18;;;;;;;1.13;0.80;;;22.90;99.50;;;;;;1914743;75;25197;-60
2023/06/01 01:28:13;;;;;;;0.70;0.70;;;22.90;99.10;;;;;;1916259;73;26181;-59
2023/06/01 01:31:02;;;;;;;0.67;0.67;;;22.90;99.10;;;;;;1872569;75;25215;-59
2023/06/01 01:33:53;;;;;;;0.60;0.60;;;22.90;99.10;;;;;;1917511;73;26209;-59
2023/06/01 01:36:43;;;;;;;0.60;0.60;;;22.90;99.10;;;;;;1915377;73;25153;-59
2023/06/01 01:39:31;;;;;;;0.53;0.53;;;22.90;99.10;;;;;;1928970;73;25220;-60
2023/06/01 01:42:19;;;;;;;0.87;0.67;;;22.90;99.00;;;;;;1933617;73;25200;-58
2023/06/01 01:45:10;;;;;;;0.50;0.50;;;22.90;99.10;;;;;;1910531;75;25212;-58
2023/06/01 01:50:43;;;;;;;0.77;0.70;;;22.80;99.00;;;;;;1944582;72;27070;-57
2023/06/01 01:56:13;;;;;;;0.60;0.60;;;22.80;99.00;;;;;;1937450;72;27036;-58
2023/06/01 02:01:41;;;;;;;0.50;0.50;;;22.80;99.00;;;;;;1928391;72;27129;-58
2023/06/01 02:04:30;;;;;;;0.80;0.80;;;22.80;99.00;;;;;;1876488;75;25171;-59
2023/06/01 02:07:18;;;;;;;0.63;0.63;;;22.80;99.00;;;;;;1878702;75;25237;-59
2023/06/01 02:10:09;;;;;;;0.70;0.70;;;22.80;99.00;;;;;;1877458;75;25160;-60
2023/06/01 02:12:57;;;;;;;0.70;0.70;;;22.80;99.00;;;;;;1892862;75;26734;-59
2023/06/01 02:15:45;;;;;;;0.60;0.60;;;22.80;99.00;;;;;;1879894;75;25563;-60
2023/06/01 02:18:35;;;;;;;0.50;0.47;;;22.80;99.00;;;;;;1896085;75;25155;-60
2023/06/01 02:21:23;;;;;;;0.50;0.50;;;22.80;99.00;;;;;;1874323;75;25204;-60
2023/06/01 02:24:12;;;;;;;0.67;0.67;;;22.80;99.00;;;;;;1882469;73;25145;-60
2023/06/01 02:27:02;;;;;;;0.60;0.60;;;22.80;99.00;;;;;;1885001;75;25175;-60
2023/06/01 02:29:51;;;;;;;2.27;0.60;;;22.80;99.00;;;;;;1896584;75;25230;-57
2023/06/01 02:35:17;;;;;;;0.60;0.60;;;22.80;99.00;;;;;;1900384;74;27151;-58
2023/06/01 02:38:05;;;;;;;2.40;0.60;;;22.80;99.00;;;;;;1875549;76;25757;-59
2023/06/01 02:40:53;;;;;;;0.60;0.60;;;22.80;98.90;;;;;;1877632;76;25177;-59
2023/06/01 02:46:20;;;;;;;0.60;0.60;;;22.70;98.80;;;;;;1931633;72;27111;-57
2023/06/01 02:49:08;;;;;;;0.63;0.50;;;22.70;98.90;;;;;;1882147;75;25286;-59
2023/06/01 02:51:57;;;;;;;0.53;0.53;;;22.70;98.80;;;;;;1890335;75;25166;-59
2023/06/01 02:54:45;;;;;;;0.70;0.70;;;22.70;98.90;;;;;;1881880;75;25611;-59
2023/06/01 02:57:33;;;;;;;0.50;0.50;;;22.70;98.90;;;;;;1892517;74;26180;-59
2023/06/01 03:00:22;;;;;;;0.70;0.60;;;22.70;98.90;;;;;;1909447;75;25166;-59
2023/06/01 03:03:10;;;;;;;0.50;0.50;;;22.70;98.90;;;;;;1889251;75;25258;-59
2023/06/01 03:05:59;;;;;;;1.77;0.50;;;22.70;98.80;;;;;;1887498;75;25178;-59
2023/06/01 03:08:47;;;;;;;0.50;0.50;;;22.70;98.80;;;;;;1895670;75;25213;-59
2023/06/01 03:11:35;;;;;;;0.50;0.50;;;22.70;98.80;;;;;;1885563;75;25740;-59
2023/06/01 03:14:23;;;;;;;0.60;0.60;;;22.70;98.80;;;;;;1890389;75;25704;-59
2023/06/01 03:19:56;;;;;;;0.40;0.40;;;22.70;98.90;;;;;;1937222;72;27078;-58
2023/06/01 03:25:24;;;;;;;0.60;0.60;;;22.70;98.70;;;;;;1897088;74;28123;-57
2023/06/01 03:28:13;;;;;;;0.40;0.40;;;22.60;98.80;;;;;;1875081;76;25301;-60
2023/06/01 03:31:02;;;;;;;0.40;0.40;;;22.70;98.80;;;;;;1879293;75;25695;-60
2023/06/01 03:33:50;;;;;;;0.47;0.47;;;22.70;98.80;;;;;;1875675;76;25200;-59
2023/06/01 03:36:39;;;;;;;0.53;0.53;;;22.70;98.80;;;;;;1874399;76;25139;-60
2023/06/01 03:39:27;;;;;;;0.60;0.60;;;22.70;98.70;;;;;;1872954;76;25216;-59
2023/06/01 03:42:16;;;;;;;0.50;0.50;;;22.70;98.70;;;;;;1875232;75;25205;-60
2023/06/01 03:47:42;;;;;;;0.60;0.60;;;22.70;98.70;;;;;;1934816;74;27058;-58
2023/06/01 03:50:31;;;;;;;0.50;0.50;;;22.70;98.70;;;;;;1892556;75;25521;-59
2023/06/01 03:53:20;;;;;;;0.60;0.60;;;22.60;98.60;;;;;;1901638;74;25195;-60
2023/06/01 03:58:47;;;;;;;0.80;0.60;;;22.60;98.70;;;;;;1936419;74;27131;-57
2023/06/01 04:01:36;;;;;;;0.60;0.60;;;22.60;99.00;;;;;;1902958;75;25207;-59
2023/06/01 04:04:28;;;;;;;0.50;0.50;;;22.60;98.60;;;;;;1894736;75;25214;-59
2023/06/01 04:07:18;;;;;;;0.60;0.60;;;22.60;98.60;;;;;;1911826;75;25610;-59
2023/06/01 04:10:11;;;;;;;0.50;0.50;;;22.60;98.60;;;;;;1908263;74;25268;-59
2023/06/01 04:12:59;;;;;;;0.50;0.50;;;22.60;98.60;;;;;;1907101;73;25739;-59
2023/06/01 04:15:48;;;;;;;0.57;0.57;;;22.60;98.60;;;;;;1904032;75;25242;-59
2023/06/01 04:18:37;;;;;;;0.50;0.50;;;22.60;98.60;;;;;;1904921;75;25214;-59
2023/06/01 04:21:25;;;;;;;1.40;0.40;;;22.60;98.50;;;;;;1905524;75;26131;-58
2023/06/01 04:24:14;;;;;;;0.40;0.40;;;22.60;98.50;;;;;;1899723;75;25174;-59
2023/06/01 04:27:04;;;;;;;0.60;0.57;;;22.60;98.50;;;;;;1907847;75;25155;-59
2023/06/01 04:29:53;;;;;;;0.73;0.57;;;22.60;98.50;;;;;;1854186;76;25179;-59
2023/06/01 04:32:44;;;;;;;0.50;0.50;;;22.60;98.50;;;;;;1871524;76;25217;-59
2023/06/01 04:38:10;;;;;;;0.77;0.50;;;22.60;98.40;;;;;;1916150;74;27503;-58
2023/06/01 04:40:58;;;;;;;0.40;0.40;;;22.50;98.80;;;;;;1871440;76;25364;-57
2023/06/01 04:46:27;;;;;;;0.40;0.40;;;22.50;98.40;;;;;;1934029;74;28119;-58
2023/06/01 04:49:18;;;;;;;0.60;0.60;;;22.50;98.80;;;;;;1909276;74;25625;-59
2023/06/01 04:52:07;;;;;;;0.50;0.50;;;22.50;98.40;;;;;;1911898;75;25158;-59
2023/06/01 04:54:56;;;;;;;0.57;0.50;;;22.50;98.40;;;;;;1911297;75;25260;-59
2023/06/01 04:57:44;;;;;;;0.60;0.60;;;22.50;98.40;;;;;;1905192;75;25210;-59
2023/06/01 05:00:33;;;;;;;0.50;0.50;;;22.50;98.40;;;;;;1904729;73;25234;-59
2023/06/01 05:06:02;;;;;;;0.50;0.50;;;22.50;98.50;;;;;;1929076;72;27582;-58
2023/06/01 05:08:51;;;;;;;0.40;0.40;;;22.50;98.50;;;;;;1893347;75;25556;-58
2023/06/01 05:11:39;;;;;;;0.53;0.53;;;22.50;98.50;;;;;;1906790;75;25238;-56
2023/06/01 05:17:06;;;;;;;17.27;0.93;;;22.50;98.90;;;;;;1917808;72;27649;-58
2023/06/01 05:19:56;;;;;;;6.70;0.80;;;22.50;98.80;;;;;;1902378;75;25564;-57
2023/06/01 05:22:45;;;;;;;20.17;1.50;;;22.60;98.70;;;;;;1907747;75;25640;-60
2023/06/01 05:25:33;;;;;;;1.00;0.70;;;22.50;98.80;;;;;;1906810;74;25620;-59
2023/06/01 05:28:21;;;;;;;5.27;0.60;;;22.60;98.90;;;;;;1895343;74;25762;-59
2023/06/01 05:31:10;;;;;;;1.37;0.40;;;22.60;98.90;;;;;;1897471;74;25762;-60
2023/06/01 05:33:59;;;;;;;0.83;0.70;;;22.60;98.80;;;;;;1898180;75;25214;-59
2023/06/01 05:36:47;;;;;;;1.43;0.60;;;22.60;98.90;;;;;;1904438;74;25302;-59
2023/06/01 05:39:35;;;;;;;4.17;0.70;;;22.60;99.50;;;;;;1905912;73;25769;-57
2023/06/01 05:42:24;;;;;;;0.60;0.60;;;22.60;99.10;;;;;;1908392;74;25266;-59
2023/06/01 05:47:52;;;;;;;1.07;0.60;;;22.60;99.00;;;;;;1899829;74;27111;-57
2023/06/01 05:50:40;;;;;;;0.90;0.50;;;22.60;99.00;;;;;;1876354;76;25693;-57
2023/06/01 05:56:08;;;;;;;3.63;0.40;;;22.60;99.10;;;;;;1901511;74;27387;-58
2023/06/01 05:58:56;;;;;;;1.97;0.40;;;22.60;99.50;;;;;;1870969;76;25949;-58
2023/06/01 06:01:45;;;;;;;0.67;0.60;;;22.60;99.30;;;;;;1870148;75;25404;-59
2023/06/01 06:07:11;;;;;;;2.40;0.60;;;22.60;99.90;;;;;;1895592;74;27459;-56
2023/06/01 06:10:00;;;;;;;1.67;0.70;;;22.60;99.90;;;;;;1871835;76;25287;-60
2023/06/01 06:12:48;;;;;;;3.97;0.70;;;22.50;99.50;;;;;;1883771;75;25217;-60
2023/06/01 06:15:36;;;;;;;1.60;0.70;;;22.50;99.90;;;;;;1875657;75;25166;-59
2023/06/01 06:21:05;;;;;;;1.40;0.40;;;22.60;99.90;;;;;;1905881;74;27103;-58
2023/06/01 06:23:58;;;;;;;2.43;0.80;;;22.60;99.90;;;;;;1857356;76;25686;-60
2023/06/01 06:26:44;;;;;;;0.87;0.83;;;22.50;99.90;;;;;;1879926;76;25175;-57
2023/06/01 06:29:33;;;;;;;2.73;0.57;;;22.50;99.90;;;;;;1863863;76;25375;-59
2023/06/01 06:34:59;;;;;;;5.43;0.80;;;22.60;99.90;;;;;;1935999;72;27619;-58
2023/06/01 06:37:48;;;;;;;3.07;0.60;;;22.50;99.90;;;;;;1901459;74;25413;-60
2023/06/01 06:40:36;;;;;;;2.00;0.70;;;22.50;99.90;;;;;;1904962;74;25231;-58
2023/06/01 06:46:04;;;;;;;2.00;0.70;;;22.50;99.70;;;;;;1938689;72;27160;-58
2023/06/01 06:48:54;;;;;;;2.60;0.80;;;22.60;99.90;;;;;;1923986;73;25347;-58
2023/06/01 06:51:42;;;;;;;1.20;0.57;;;22.60;99.90;;;;;;1919444;73;25193;-57
2023/06/01 06:54:31;;;;;;;1.50;0.60;;;22.60;99.80;;;;;;1917645;73;25176;-57
2023/06/01 06:57:20;;;;;;;1.00;0.77;;;22.60;99.80;;;;;;1913799;73;25242;-59
2023/06/01 07:02:47;;;;;;;1.67;0.80;;;22.60;99.70;;;;;;1936257;72;27042;-58
2023/06/01 07:08:15;;;;;;;1.53;0.60;;;22.60;99.60;;;;;;1915181;73;27096;-58
2023/06/01 07:11:04;;;;;;;0.77;0.77;;;22.60;99.50;;;;;;1904204;73;25155;-60
2023/06/01 07:13:53;;;;;;;1.80;0.70;;;22.60;99.60;;;;;;1911761;73;25145;-60
2023/06/01 07:16:41;;;;;;;0.93;0.70;;;22.60;99.60;;;;;;1901307;75;25145;-60
2023/06/01 07:19:32;;;;;;;1.70;0.70;;;22.60;99.70;;;;;;1907779;73;25657;-59
2023/06/01 07:22:21;;;;;;;2.67;0.93;;;22.60;99.70;;;;;;1914475;75;25166;-59
2023/06/01 07:25:12;;;;;;;0.60;0.60;;;22.70;99.60;;;;;;1909939;73;25260;-60
2023/06/01 07:28:06;;;;;;;0.70;0.60;;;22.70;99.70;;;;;;1901703;75;25726;-59
2023/06/01 07:33:33;;;;;;;3.23;0.70;;;22.70;99.70;;;;;;1904656;74;27623;-57
2023/06/01 07:36:23;;;;;;;0.70;0.70;;;22.70;99.90;;;;;;1863980;76;25298;-58
2023/06/01 07:39:12;;;;;;;1.13;0.50;;;22.70;99.60;;;;;;1877583;75;25209;-61
2023/06/01 07:42:01;;;;;;;0.40;0.40;;;22.70;99.60;;;;;;1870717;75;25256;-58
2023/06/01 07:47:28;;;;;;;1.40;0.63;;;22.70;99.40;;;;;;1910831;74;27072;-57
2023/06/01 07:50:17;;;;;;;1.60;0.67;;;22.70;99.30;;;;;;1879563;75;25227;-59
2023/06/01 07:55:44;;;;;;;3.43;0.80;;;22.70;99.40;;;;;;1902986;74;27607;-59
2023/06/01 07:58:33;;;;;;;2.40;0.50;;;22.70;99.30;;;;;;1883365;74;25213;-59
2023/06/01 08:01:22;;;;;;;0.60;0.60;;;22.80;99.20;;;;;;1869785;76;25278;-61
2023/06/01 08:04:10;;;;;;;1.33;0.70;;;22.80;99.20;;;;;;1877062;75;25149;-58
2023/06/01 08:06:59;;;;;;;0.50;0.50;;;22.80;99.30;;;;;;1873384;75;26435;-57
2023/06/01 08:09:47;;;;;;;0.93;0.50;;;22.80;99.10;;;;;;1871691;74;25479;-59
2023/06/01 08:15:15;;;;;;;1.53;0.60;;;22.80;99.10;;;;;;1895751;74;27172;-58
2023/06/01 08:18:06;;;;;;;0.67;0.67;;;22.90;99.20;;;;;;1866054;76;26247;-60
2023/06/01 08:20:55;;;;;;;0.40;0.40;;;22.90;99.10;;;;;;1872570;75;25198;-60
2023/06/01 08:26:22;;;;;;;3.10;0.60;;;22.90;99.00;;;;;;1942473;72;27039;-58
2023/06/01 08:29:11;;;;;;;0.73;0.43;;;23.00;99.10;;;;;;1889549;75;25711;-61
2023/06/01 08:32:00;;;;;;;0.60;0.60;;;23.00;98.90;;;;;;1887700;74;25150;-60
2023/06/01 08:34:50;;;;;;;1.20;0.60;;;23.00;99.10;;;;;;1893433;74;25279;-59
2023/06/01 08:37:39;;;;;;;1.23;0.70;;;23.00;99.10;;;;;;1907476;75;25713;-60
2023/06/01 08:40:31;;;;;;;2.67;0.60;;;23.00;99.10;;;;;;1904374;75;25149;-60
2023/06/01 08:43:21;;;;;;;0.70;0.70;;;23.00;99.20;;;;;;1877062;75;25230;-59
2023/06/01 08:46:09;;;;;;;3.07;0.80;;;22.90;99.10;;;;;;1875926;75;25158;-60
2023/06/01 08:49:01;;;;;;;4.20;0.50;;;23.00;99.20;;;;;;1873702;75;25812;-59
2023/06/01 08:51:52;;;;;;;3.20;0.60;;;23.00;99.00;;;;;;1880570;75;25221;-59
2023/06/01 08:57:21;;;;;;;0.33;0.30;;;22.90;99.00;;;;;;1940431;72;27564;-58
2023/06/01 09:00:13;;;;;;;0.50;0.50;;;22.90;98.90;;;;;;1915580;73;25242;-59
2023/06/01 09:05:41;;;;;;;0.73;0.53;;;22.90;98.90;;;;;;1918723;73;28190;-57
2023/06/01 09:08:30;;;;;;;1.40;0.50;;;22.90;98.90;;;;;;1900613;74;25671;-58
2023/06/01 09:11:20;;;;;;;0.50;0.50;;;22.90;98.90;;;;;;1901644;74;25767;-58
2023/06/01 09:14:22;;;;;;;0.70;0.50;;;22.90;98.70;;;;;;1914016;75;26554;-58
2023/06/01 09:19:55;;;;;;;1.50;0.40;;;23.00;98.60;;;;;;1917049;74;27371;-57
2023/06/01 09:22:46;;;;;;;0.73;0.60;;;23.00;98.60;;;;;;1903206;75;25244;-57
2023/06/01 09:25:35;;;;;;;0.40;0.40;;;23.00;98.70;;;;;;1913219;75;25284;-58
2023/06/01 09:28:23;;;;;;;5.43;0.50;;;23.00;98.60;;;;;;1900224;75;25663;-58
2023/06/01 09:31:12;;;;;;;0.53;0.43;;;23.00;98.60;;;;;;1902624;74;25241;-58
2023/06/01 09:34:03;;;;;;;0.50;0.50;;;23.00;98.50;;;;;;1903422;75;25260;-59
2023/06/01 09:36:54;;;;;;;1.23;0.67;;;23.00;98.50;;;;;;1897827;75;25199;-57
2023/06/01 09:39:42;;;;;;;0.80;0.50;;;23.00;98.40;;;;;;1915727;74;26239;-56
2023/06/01 09:42:35;;;;;;;0.50;0.50;;;23.00;98.40;;;;;;1916199;74;25297;-58
2023/06/01 09:45:25;;;;;;;1.13;0.47;;;23.00;98.40;;;;;;1912783;74;25788;-60
2023/06/01 09:48:20;;;;;;;1.30;0.60;;;23.00;98.50;;;;;;1913484;74;25543;-58
2023/06/01 09:54:03;;;;;;;1.80;0.40;;;23.00;98.40;;;;;;1940801;72;27060;-57
2023/06/01 09:59:33;;;;;;;0.50;0.50;;;23.00;98.50;;;;;;1933074;72;27434;-58
2023/06/01 10:05:03;;;;;;;0.77;0.70;;;23.00;98.60;;;;;;1934195;72;27092;-58
2023/06/01 10:10:29;;;;;;;2.63;0.70;;;23.00;98.50;;;;;;1904452;73;26996;-58
2023/06/01 10:13:22;;;;;;;0.50;0.50;;;23.00;98.50;;;;;;1864823;75;25716;-57
2023/06/01 10:16:12;;;;;;;2.23;0.63;;;23.00;98.60;;;;;;1872751;76;26324;-58
2023/06/01 10:19:01;;;;;;;1.50;0.40;;;23.00;98.70;;;;;;1871184;76;25639;-59
2023/06/01 10:21:51;;;;;;;0.63;0.40;;;23.00;98.60;;;;;;1876734;76;25242;-59
2023/06/01 10:24:41;;;;;;;0.97;0.63;;;23.00;98.40;;;;;;1879087;76;25597;-58
2023/06/01 10:30:13;;;;;;;1.03;0.40;;;23.10;98.40;;;;;;1925803;74;27020;-58
2023/06/01 10:36:08;;;;;;;0.40;0.40;;;23.00;98.30;;;;;;2033768;69;27454;-56
2023/06/01 10:39:24;;;;;;;0.53;0.53;;;23.00;98.40;;;;;;1998016;71;25290;-59
2023/06/01 10:45:39;;;;;;;2.37;0.47;;;23.00;98.20;;;;;;1942441;72;27128;-57
2023/06/01 10:51:31;;;;;;;0.70;0.70;;;23.00;98.20;;;;;;1916949;72;27081;-57
2023/06/01 10:54:29;;;;;;;0.63;0.50;;;23.00;98.30;;;;;;1896311;73;26298;-54
2023/06/01 10:57:23;;;;;;;0.60;0.60;;;23.10;98.20;;;;;;1904464;74;26893;-57
2023/06/01 11:02:59;;;;;;;1.90;0.67;;;23.00;98.10;;;;;;1948600;72;27583;-57
2023/06/01 11:08:57;;;;;;;0.97;0.70;;;23.00;98.10;;;;;;1958322;72;27514;-58
2023/06/01 11:14:44;;;;;;;0.53;0.53;;;23.10;98.10;;;;;;1943553;72;27077;-58
2023/06/01 11:17:33;;;;;;;0.50;0.50;;;23.10;98.10;;;;;;1930804;73;26221;-58
2023/06/01 11:20:29;;;;;;;0.70;0.70;;;23.10;98.10;;;;;;1924783;73;25333;-59
2023/06/01 11:23:13;;;;;;;1.50;0.70;;;23.10;98.20;;;;;;1917104;73;25236;-60
2023/06/01 11:26:06;;;;;;;1.30;0.70;;;23.10;98.20;;;;;;1923519;73;25259;-58
2023/06/01 11:28:58;;;;;;;1.03;0.70;;;23.10;98.30;;;;;;1929818;73;26496;-58
2023/06/01 11:31:48;;;;;;;0.50;0.50;;;23.10;98.20;;;;;;1919463;73;25916;-59
2023/06/01 11:37:17;;;;;;;0.50;0.50;;;23.10;98.30;;;;;;1925723;72;27029;-57
2023/06/01 11:40:11;;;;;;;0.57;0.50;;;23.10;98.20;;;;;;1938433;73;25716;-57
2023/06/01 11:43:00;;;;;;;0.70;0.70;;;23.10;98.30;;;;;;1937402;73;25293;-59
2023/06/01 11:48:38;;;;;;;0.80;0.60;;;23.10;98.30;;;;;;1912782;74;27052;-57
2023/06/01 11:51:27;;;;;;;0.50;0.50;;;23.10;98.50;;;;;;1879580;75;25322;-58
2023/06/01 11:56:55;;;;;;;0.87;0.60;;;23.10;98.10;;;;;;2034899;69;27052;-57
2023/06/01 11:59:46;;;;;;;0.77;0.60;;;23.10;98.20;;;;;;2010018;70;25352;-57
2023/06/01 12:02:34;;;;;;;1.63;0.60;;;23.10;98.10;;;;;;1923315;73;25700;-59
2023/06/01 12:05:24;;;;;;;0.70;0.70;;;23.10;98.00;;;;;;1931169;73;25179;-58
2023/06/01 12:08:18;;;;;;;1.47;0.70;;;23.10;98.00;;;;;;1999952;71;25165;-58
2023/06/01 12:11:09;;;;;;;0.83;0.70;;;23.20;98.10;;;;;;2007244;70;26699;-59
2023/06/01 12:13:59;;;;;;;0.53;0.53;;;23.20;98.10;;;;;;2003984;71;25277;-58
2023/06/01 12:17:02;;;;;;;1.23;0.70;;;23.20;98.00;;;;;;2022358;70;25258;-59
2023/06/01 12:19:52;;;;;;;0.60;0.60;;;23.20;98.00;;;;;;1926741;73;25858;-61
2023/06/01 12:25:21;;;;;;;1.50;0.80;;;23.20;98.00;;;;;;1938376;72;27149;-58
2023/06/01 12:28:10;;;;;;;0.53;0.53;;;23.20;98.00;;;;;;1887697;75;25345;-58
2023/06/01 12:33:57;;;;;;;4.73;0.70;;;23.20;97.90;;;;;;1950079;72;27037;-59
2023/06/01 12:36:47;;;;;;;0.60;0.60;;;23.20;97.90;;;;;;1925558;73;25377;-57
2023/06/01 12:39:36;;;;;;;1.40;0.80;;;23.20;98.00;;;;;;1937197;73;25671;-57
2023/06/01 12:42:37;;;;;;;1.70;0.70;;;23.20;98.00;;;;;;1924041;73;25278;-58
2023/06/01 12:48:04;;;;;;;0.60;0.60;;;23.20;98.20;;;;;;1940191;72;28054;-58
2023/06/01 12:50:53;;;;;;;1.03;0.80;;;23.20;97.90;;;;;;1906437;73;25281;-61
2023/06/01 12:53:42;;;;;;;0.50;0.50;;;23.20;97.80;;;;;;1923722;73;25324;-58
2023/06/01 12:56:31;;;;;;;0.60;0.60;;;23.20;97.80;;;;;;1920867;73;25765;-58
2023/06/01 12:59:20;;;;;;;0.63;0.63;;;23.20;97.80;;;;;;1911827;73;26223;-60
2023/06/01 13:02:09;;;;;;;0.60;0.60;;;23.20;97.80;;;;;;1917488;73;25283;-58
2023/06/01 13:04:58;;;;;;;0.80;0.80;;;23.20;97.80;;;;;;1911606;73;25325;-59
2023/06/01 13:07:48;;;;;;;0.60;0.60;;;23.20;97.80;;;;;;1929286;74;25263;-59
2023/06/01 13:10:37;;;;;;;0.73;0.73;;;23.20;97.70;;;;;;1925370;73;25246;-57
2023/06/01 13:13:26;;;;;;;0.87;0.70;;;23.20;97.60;;;;;;1927987;73;25240;-58
2023/06/01 13:16:15;;;;;;;1.10;0.60;;;23.20;97.60;;;;;;1912843;73;26262;-59
2023/06/01 13:19:04;;;;;;;3.83;0.90;;;23.20;97.60;;;;;;1923234;74;26250;-57
2023/06/01 13:21:53;;;;;;;0.77;0.70;;;23.30;97.60;;;;;;1922213;73;25754;-57
2023/06/01 13:27:21;;;;;;;0.60;0.60;;;23.20;97.60;;;;;;1952786;72;27063;-58
2023/06/01 13:30:13;;;;;;;1.37;0.70;;;23.30;97.60;;;;;;1931807;73;25243;-58
2023/06/01 13:33:03;;;;;;;2.77;0.70;;;23.30;97.50;;;;;;1926524;73;26502;-60
2023/06/01 13:35:51;;;;;;;1.77;0.70;;;23.30;97.60;;;;;;1929775;73;25320;-58
2023/06/01 13:38:41;;;;;;;1.57;0.60;;;23.30;97.60;;;;;;1919857;73;25275;-62
2023/06/01 13:41:30;;;;;;;0.70;0.70;;;23.30;97.60;;;;;;1926588;73;25176;-58
2023/06/01 13:44:19;;;;;;;0.77;0.77;;;23.30;97.60;;;;;;1910858;73;26319;-59
2023/06/01 13:47:09;;;;;;;0.60;0.60;;;23.30;97.60;;;;;;1901966;73;25183;-58
2023/06/01 13:49:58;;;;;;;4.73;0.60;;;23.30;97.60;;;;;;1918841;73;25241;-56
2023/06/01 13:52:47;;;;;;;0.80;0.60;;;23.30;97.50;;;;;;1909625;73;25247;-60
2023/06/01 13:55:36;;;;;;;0.53;0.53;;;23.30;97.50;;;;;;1906711;73;25361;-60
2023/06/01 13:58:25;;;;;;;2.53;0.60;;;23.30;97.50;;;;;;1825400;77;26347;-59
2023/06/01 14:01:14;;;;;;;0.77;0.60;;;23.30;97.50;;;;;;1918437;73;25234;-59
2023/06/01 14:04:03;;;;;;;0.50;0.50;;;23.30;97.40;;;;;;1907497;74;25282;-57
2023/06/01 14:09:30;;;;;;;0.60;0.60;;;23.30;97.50;;;;;;1914230;74;26939;-59
2023/06/01 14:12:19;;;;;;;0.50;0.47;;;23.30;97.40;;;;;;1901037;75;25770;-58
2023/06/01 14:15:09;;;;;;;0.50;0.50;;;23.30;97.50;;;;;;1905101;74;26295;-57
2023/06/01 14:17:58;;;;;;;0.60;0.60;;;23.30;97.40;;;;;;1906849;75;25740;-58
2023/06/01 14:20:46;;;;;;;0.60;0.60;;;23.30;97.70;;;;;;1900651;75;25348;-57
2023/06/01 14:23:36;;;;;;;0.70;0.70;;;23.30;97.40;;;;;;1913203;75;25678;-58
2023/06/01 14:26:26;;;;;;;0.70;0.70;;;23.30;97.40;;;;;;1913844;75;25335;-58
2023/06/01 14:29:16;;;;;;;2.27;0.63;;;23.30;97.40;;;;;;1918381;74;25908;-57
2023/06/01 14:32:06;;;;;;;0.83;0.60;;;23.30;97.30;;;;;;1881692;74;25234;-58
2023/06/01 14:34:55;;;;;;;0.60;0.60;;;23.30;97.30;;;;;;1913069;75;26361;-58
2023/06/01 14:37:44;;;;;;;1.83;0.53;;;23.30;97.30;;;;;;1895315;75;26630;-58
2023/06/01 14:40:34;;;;;;;0.50;0.50;;;23.30;97.60;;;;;;1899134;74;25682;-57
2023/06/01 14:43:23;;;;;;;0.50;0.50;;;23.30;97.30;;;;;;1891604;75;25791;-57
2023/06/01 14:46:12;;;;;;;0.57;0.50;;;23.30;97.30;;;;;;1876973;75;25289;-59
2023/06/01 14:49:02;;;;;;;0.73;0.70;;;23.40;97.30;;;;;;1835032;76;26304;-58
2023/06/01 14:54:29;;;;;;;2.17;0.60;;;23.30;97.50;;;;;;1935649;72;28052;-59
2023/06/01 14:57:20;;;;;;;0.70;0.70;;;23.30;97.50;;;;;;1906600;74;25720;-56
2023/06/01 15:00:12;;;;;;;0.67;0.60;;;23.40;97.40;;;;;;1902940;74;26207;-58
2023/06/01 15:03:01;;;;;;;0.60;0.60;;;23.30;97.40;;;;;;1892817;74;26175;-59
2023/06/01 15:05:51;;;;;;;0.60;0.60;;;23.40;97.40;;;;;;1891889;74;26288;-60
2023/06/01 15:08:40;;;;;;;0.60;0.60;;;23.40;97.40;;;;;;1902941;74;26259;-58
2023/06/01 15:11:29;;;;;;;0.60;0.60;;;23.40;97.50;;;;;;1904235;74;26171;-59
2023/06/01 15:14:18;;;;;;;2.53;0.70;;;23.40;97.50;;;;;;1900291;74;25775;-59
2023/06/01 15:17:08;;;;;;;1.17;0.90;;;23.40;97.60;;;;;;1895181;74;25327;-57
2023/06/01 15:19:57;;;;;;;6.30;0.60;;;23.40;97.60;;;;;;1908081;74;25193;-59
2023/06/01 15:22:46;;;;;;;0.70;0.70;;;23.40;97.50;;;;;;1904067;75;25205;-56
2023/06/01 15:25:35;;;;;;;2.90;0.50;;;23.40;97.50;;;;;;1906912;73;25615;-58
2023/06/01 15:28:24;;;;;;;2.27;0.70;;;23.40;97.50;;;;;;1909030;75;25242;-58
2023/06/01 15:31:13;;;;;;;7.00;1.00;;;23.40;97.50;;;;;;1912013;74;25249;-58
2023/06/01 15:34:02;;;;;;;3.70;0.73;;;23.40;97.70;;;;;;1905727;75;26363;-58
2023/06/01 15:39:30;;;;;;;0.90;0.90;;;23.40;97.60;;;;;;1941189;72;27023;-57
2023/06/01 15:42:19;;;;;;;2.50;0.80;;;23.40;97.70;;;;;;1923939;73;25296;-58
2023/06/01 15:45:09;;;;;;;0.70;0.70;;;23.40;97.70;;;;;;1890404;75;25333;-59
2023/06/01 15:50:38;;;;;;;1.80;0.57;;;23.40;97.50;;;;;;1915779;74;27063;-57
2023/06/01 15:53:26;;;;;;;2.27;0.60;;;23.40;97.50;;;;;;1907740;73;26277;-59
2023/06/01 15:56:15;;;;;;;3.50;0.73;;;23.40;97.50;;;;;;1893905;73;25295;-58
2023/06/01 15:59:04;;;;;;;1.97;0.47;;;23.40;97.40;;;;;;1906189;73;25803;-59
2023/06/01 16:01:53;;;;;;;1.53;0.60;;;23.40;97.40;;;;;;1901980;75;25239;-60
2023/06/01 16:04:42;;;;;;;0.50;0.50;;;23.40;97.50;;;;;;1898029;73;25260;-58
2023/06/01 16:07:30;;;;;;;0.70;0.70;;;23.40;97.50;;;;;;1898858;73;25284;-58
2023/06/01 16:10:19;;;;;;;2.53;0.60;;;23.50;97.40;;;;;;1893593;73;25827;-58
2023/06/01 16:13:08;;;;;;;1.53;0.90;;;23.50;97.60;;;;;;1899737;73;25350;-58
2023/06/01 16:18:34;;;;;;;0.63;0.63;;;23.40;97.50;;;;;;1939083;73;28146;-56
2023/06/01 16:21:23;;;;;;;0.60;0.60;;;23.40;97.50;;;;;;1913977;75;26340;-59
2023/06/01 16:24:12;;;;;;;0.97;0.63;;;23.40;97.40;;;;;;1909544;74;25778;-59
2023/06/01 16:27:01;;;;;;;0.40;0.40;;;23.40;97.40;;;;;;1911451;73;25171;-57
2023/06/01 16:29:50;;;;;;;0.60;0.60;;;23.40;97.30;;;;;;1905108;75;26312;-58
2023/06/01 16:32:39;;;;;;;1.47;0.60;;;23.40;97.20;;;;;;1909380;75;26211;-58
2023/06/01 16:35:29;;;;;;;4.87;0.70;;;23.30;97.10;;;;;;1911678;75;26552;-58
2023/06/01 16:38:18;;;;;;;0.53;0.53;;;23.40;97.20;;;;;;1905477;75;25700;-59
2023/06/01 16:41:07;;;;;;;0.77;0.50;;;23.40;97.10;;;;;;1899649;74;25280;-58
2023/06/01 16:43:55;;;;;;;0.80;0.60;;;23.40;97.10;;;;;;1918148;74;25667;-58
2023/06/01 16:49:23;;;;;;;0.57;0.57;;;23.30;97.10;;;;;;1927053;72;26973;-57
2023/06/01 16:54:53;;;;;;;1.27;0.70;;;23.30;97.00;;;;;;1912090;74;27067;-58
2023/06/01 16:57:41;;;;;;;0.60;0.60;;;23.30;97.00;;;;;;1900749;75;25293;-58
2023/06/01 17:00:29;;;;;;;0.50;0.50;;;23.30;97.00;;;;;;1907065;75;25217;-58
2023/06/01 17:03:19;;;;;;;0.60;0.60;;;23.30;97.00;;;;;;1894738;73;25730;-59
2023/06/01 17:06:08;;;;;;;1.87;0.60;;;23.30;97.10;;;;;;1891016;73;25254;-58
2023/06/01 17:08:58;;;;;;;4.27;0.80;;;23.30;97.10;;;;;;1894810;75;25384;-59
2023/06/01 17:11:48;;;;;;;0.77;0.60;;;23.30;97.50;;;;;;1898318;75;25315;-58
2023/06/01 17:14:37;;;;;;;1.73;0.60;;;23.40;97.30;;;;;;1902709;75;25353;-59
2023/06/01 17:17:26;;;;;;;6.10;0.60;;;23.40;97.50;;;;;;1891803;75;26259;-56
2023/06/01 17:22:54;;;;;;;8.53;0.93;;;23.40;97.70;;;;;;1935836;72;27038;-58
2023/06/01 17:25:42;;;;;;;5.57;0.87;;;23.40;97.80;;;;;;1918803;72;26361;-58
2023/06/01 17:28:32;;;;;;;4.40;1.00;;;23.50;97.80;;;;;;1922378;73;25349;-60